Latest Weather Observations for Burnie Port

IDT60801

Issued at 8:01 pm EST Thursday 2 July 2015 (issued every 30 minutes, with the page automatically refreshed every 10 minutes)

About weather observations | Map of weather stations | Latest weather observations for TAS | Other Formats
Station Details ID: 091344 Name: BURNIE NTC AWS Lat: -41.05 Lon: 145.91 Height: 0.0 m
Data from the previous 72 hours. | See also: Recent months for locations in Tasmania
Date/Time
EST
Temp
°C
App
Temp
°C
Dew
Point
Rel
Hum
%
Delta-T
°C
Wind Press
QNH
hPa
Press
MSL
hPa
Rain
since 9 am
mm
Dir
 
Spd
km/h
Gust
km/h
Spd
kts
Gust
kts
02/08:00pm 6.5 - - - - WSW 9 15 5 8 1023.6 1023.6 -
02/07:30pm 6.8 - - - - W 11 20 6 11 1023.4 1023.4 -
02/07:00pm 7.1 - - - - WSW 15 24 8 13 1023.1 1023.1 -
02/06:30pm 6.9 - - - - W 11 17 6 9 1022.5 1022.5 -
02/06:00pm 7.3 - - - - NW 13 19 7 10 1022.1 1022.1 -
02/05:30pm 7.2 - - - - WNW 6 11 3 6 1021.9 1021.9 -
02/05:00pm 7.4 - - - - WSW 15 28 8 15 1021.5 1021.5 -
02/04:30pm 7.8 - - - - WSW 17 28 9 15 1020.9 1020.9 -
02/04:00pm 7.8 - - - - SW 19 28 10 15 1020.7 1020.7 -
02/03:30pm 8.3 - - - - SW 19 33 10 18 1020.2 1020.2 -
02/03:00pm 8.4 - - - - WSW 17 35 9 19 1019.8 1019.8 -
02/02:30pm 8.7 - - - - SW 32 48 17 26 1018.5 1018.5 -
02/02:16pm 9.3 - - - - SW 28 50 15 27 1017.7 1017.7 -
02/02:00pm 9.5 - - - - SW 24 44 13 24 1017.5 1017.5 -
02/01:45pm 9.3 - - - - SW 28 48 15 26 1017.6 1017.6 -
02/01:30pm 9.5 - - - - SW 17 33 9 18 1017.5 1017.5 -
02/01:00pm 9.6 - - - - SW 19 37 10 20 1017.2 1017.2 -
02/12:30pm 9.1 - - - - SW 15 28 8 15 1017.0 1017.0 -
02/12:00pm 9.4 - - - - WSW 20 39 11 21 1017.0 1017.0 -
02/11:30am 9.0 - - - - W 7 13 4 7 1016.8 1016.8 -
02/11:00am 8.3 - - - - WSW 13 22 7 12 1016.6 1016.6 -
02/10:30am 8.0 - - - - SW 19 32 10 17 1016.4 1016.4 -
02/10:00am 6.4 - - - - WNW 11 15 6 8 1015.9 1015.9 -
02/09:30am 5.8 - - - - WNW 4 7 2 4 1015.3 1015.3 -
02/09:00am 5.5 - - - - WNW 2 6 1 3 1015.0 1015.0 -
02/08:30am 5.5 - - - - W 9 13 5 7 1014.2 1014.2 -
02/08:00am 5.5 - - - - WNW 7 13 4 7 1014.2 1014.2 -
02/07:30am 5.6 - - - - W 13 24 7 13 1013.9 1013.9 -
02/07:00am 6.3 - - - - W 19 32 10 17 1013.4 1013.4 -
02/06:30am 6.9 - - - - WSW 17 30 9 16 1012.8 1012.8 -
02/06:00am 7.7 - - - - WSW 22 44 12 24 1012.1 1012.1 -
02/05:49am 7.7 - - - - WSW 20 46 11 25 1012.0 1012.0 -
02/05:30am 7.2 - - - - W 11 15 6 8 1011.8 1011.8 -
02/05:00am 7.9 - - - - WSW 26 43 14 23 1011.1 1011.1 -
02/04:42am 7.6 - - - - WSW 22 48 12 26 1012.0 1012.0 -
02/04:39am 7.5 - - - - WSW 19 48 10 26 1012.1 1012.1 -
02/04:30am 7.7 - - - - W 9 15 5 8 1011.4 1011.4 -
02/04:00am 8.0 - - - - WNW 11 17 6 9 1011.0 1011.0 -
02/03:30am 8.2 - - - - WNW 17 33 9 18 1011.1 1011.1 -
02/03:00am 8.3 - - - - WNW 11 20 6 11 1011.1 1011.1 -
02/02:30am 8.4 - - - - W 11 24 6 13 1011.0 1011.0 -
02/02:00am 8.7 - - - - W 15 26 8 14 1010.7 1010.7 -
02/01:30am 8.8 - - - - W 13 22 7 12 1010.9 1010.9 -
02/01:00am 9.1 - - - - W 15 32 8 17 1010.4 1010.4 -
02/12:30am 9.5 - - - - WSW 22 39 12 21 1010.4 1010.4 -
02/12:00am 10.2 - - - - W 22 41 12 22 1010.0 1010.0 -
 
Date/Time
EST
Temp
°C
App
Temp
°C
Dew
Point
Rel
Hum
%
Delta-T
°C
Wind Press
QNH
hPa
Press
MSL
hPa
Rain
since 9 am
mm
Dir
 
Spd
km/h
Gust
km/h
Spd
kts
Gust
kts
01/11:30pm 10.5 - - - - W 17 32 9 17 1010.0 1010.0 -
01/11:00pm 10.8 - - - - W 24 48 13 26 1010.0 1010.0 -
01/10:30pm 10.4 - - - - WNW 15 28 8 15 1010.2 1010.2 -
01/10:00pm 10.4 - - - - WNW 11 17 6 9 1010.2 1010.2 -
01/09:30pm 10.6 - - - - W 13 24 7 13 1010.4 1010.4 -
01/09:00pm 11.4 - - - - W 24 44 13 24 1010.6 1010.6 -
01/08:51pm 11.7 - - - - WNW 33 48 18 26 1010.9 1010.9 -
01/08:30pm 12.7 - - - - WNW 37 50 20 27 1009.9 1009.9 -
01/08:00pm 12.8 - - - - NW 39 50 21 27 1010.3 1010.3 -
01/07:30pm 12.6 - - - - NW 32 46 17 25 1011.3 1011.3 -
01/07:28pm 12.6 - - - - NW 28 46 15 25 1011.3 1011.3 -
01/07:00pm 12.2 - - - - WNW 17 28 9 15 1012.3 1012.3 -
01/06:30pm 11.9 - - - - WNW 19 33 10 18 1013.0 1013.0 -
01/06:00pm 11.9 - - - - NW 30 44 16 24 1013.5 1013.5 -
01/05:30pm 12.3 - - - - WNW 20 33 11 18 1013.8 1013.8 -
01/05:00pm 12.4 - - - - WNW 24 39 13 21 1014.2 1014.2 -
01/04:30pm 12.8 - - - - NW 26 33 14 18 1014.3 1014.3 -
01/04:00pm 12.9 - - - - WNW 17 30 9 16 1014.8 1014.8 -
01/03:30pm 12.8 - - - - WNW 26 37 14 20 1015.6 1015.6 -
01/03:00pm 12.7 - - - - WNW 30 46 16 25 1015.8 1015.8 -
01/02:30pm 12.8 - - - - WNW 24 39 13 21 1015.8 1015.8 -
01/02:22pm 12.5 - - - - WNW 30 50 16 27 1016.2 1016.2 -
01/02:00pm 12.8 - - - - NW 28 39 15 21 1016.4 1016.4 -
01/01:30pm 12.8 - - - - WNW 30 43 16 23 1017.3 1017.3 -
01/01:00pm 12.8 - - - - WNW 28 39 15 21 1018.0 1018.0 -
01/12:30pm 12.5 - - - - NW 33 44 18 24 1018.5 1018.5 -
01/12:00pm 12.4 - - - - NW 26 33 14 18 1019.4 1019.4 -
01/11:30am 12.2 - - - - NW 20 28 11 15 1020.2 1020.2 -
01/11:00am 11.5 - - - - NW 15 20 8 11 1020.8 1020.8 -
01/10:30am 10.4 - - - - NW 13 17 7 9 1021.3 1021.3 -
01/10:00am 10.3 - - - - NW 13 17 7 9 1021.7 1021.7 -
01/09:30am 10.5 - - - - WNW 9 19 5 10 1021.9 1021.9 -
01/09:00am 10.3 - - - - W 7 13 4 7 1022.2 1022.2 -
01/08:30am 9.5 - - - - W 7 13 4 7 1022.2 1022.2 -
01/08:00am 9.0 - - - - NW 9 13 5 7 1022.3 1022.3 -
01/07:30am 9.3 - - - - WNW 11 15 6 8 1022.5 1022.5 -
01/07:00am 9.3 - - - - WNW 6 7 3 4 1022.6 1022.6 -
01/06:30am 8.9 - - - - WNW 7 11 4 6 1022.7 1022.7 -
01/06:00am 8.2 - - - - SW 6 9 3 5 1022.8 1022.8 -
01/05:30am 8.5 - - - - WNW 7 11 4 6 1023.3 1023.3 -
01/05:00am 8.7 - - - - NW 6 9 3 5 1023.3 1023.3 -
01/04:30am 7.3 - - - - WNW 4 6 2 3 1023.6 1023.6 -
01/04:00am 6.4 - - - - S 6 7 3 4 1023.5 1023.5 -
01/03:30am 7.2 - - - - SSW 6 7 3 4 1023.8 1023.8 -
01/03:00am 7.0 - - - - S 6 7 3 4 1024.1 1024.1 -
01/02:30am 7.3 - - - - SW 2 6 1 3 1024.2 1024.2 -
01/02:00am 7.3 - - - - S 2 4 1 2 1024.3 1024.3 -
01/01:30am 7.0 - - - - S 6 7 3 4 1024.3 1024.3 -
01/01:00am 7.9 - - - - WSW 6 9 3 5 1024.5 1024.5 -
01/12:30am 8.2 - - - - WNW 7 15 4 8 1024.6 1024.6 -
01/12:00am 8.6 - - - - WSW 9 13 5 7 1024.9 1024.9 -
 
Date/Time
EST
Temp
°C
App
Temp
°C
Dew
Point
Rel
Hum
%
Delta-T
°C
Wind Press
QNH
hPa
Press
MSL
hPa
Rain
since 9 am
mm
Dir
 
Spd
km/h
Gust
km/h
Spd
kts
Gust
kts
30/11:30pm 8.6 - - - - WSW 7 13 4 7 1025.1 1025.1 -
30/11:00pm 8.6 - - - - W 11 17 6 9 1025.1 1025.1 -
30/10:30pm 8.4 - - - - W 11 19 6 10 1025.2 1025.2 -
30/10:00pm 8.3 - - - - W 7 11 4 6 1025.2 1025.2 -
30/09:30pm 8.5 - - - - WNW 4 7 2 4 1025.2 1025.2 -
30/09:00pm 8.8 - - - - WNW 7 11 4 6 1025.0 1025.0 -
30/08:30pm 9.2 - - - - WNW 4 7 2 4 1025.0 1025.0 -
30/08:00pm 10.0 - - - - WNW 9 13 5 7 1025.0 1025.0 -
30/07:30pm 10.2 - - - - WNW 4 7 2 4 1024.8 1024.8 -
30/07:00pm 10.5 - - - - WSW 6 13 3 7 1024.8 1024.8 -
30/06:30pm 10.3 - - - - S 2 4 1 2 1024.4 1024.4 -
30/06:00pm 11.6 - - - - WSW 7 11 4 6 1024.4 1024.4 -
30/05:30pm 12.1 - - - - WSW 9 13 5 7 1024.1 1024.1 -
30/05:00pm 12.8 - - - - W 7 13 4 7 1024.0 1024.0 -
30/04:30pm 13.3 - - - - W 9 15 5 8 1023.9 1023.9 -
30/04:00pm 13.7 - - - - WSW 9 17 5 9 1023.8 1023.8 -
30/03:30pm 13.6 - - - - SW 11 17 6 9 1023.8 1023.8 -
30/03:00pm 13.6 - - - - WSW 9 15 5 8 1023.6 1023.6 -
30/02:30pm 13.9 - - - - W 11 22 6 12 1023.7 1023.7 -
30/02:00pm 13.5 - - - - W 11 19 6 10 1023.9 1023.9 -
30/01:30pm 12.9 - - - - WSW 11 20 6 11 1024.3 1024.3 -
30/01:00pm 12.4 - - - - WSW 13 20 7 11 1024.6 1024.6 -
30/12:30pm 12.1 - - - - W 13 28 7 15 1024.9 1024.9 -
30/12:00pm 11.6 - - - - WSW 11 22 6 12 1025.2 1025.2 -
30/11:30am 10.9 - - - - W 17 26 9 14 1025.9 1025.9 -
30/11:00am 10.3 - - - - W 11 22 6 12 1026.4 1026.4 -
30/10:30am 9.8 - - - - W 13 24 7 13 1026.6 1026.6 -
30/10:00am 9.1 - - - - WNW 13 17 7 9 1026.8 1026.8 -
30/09:30am 8.4 - - - - NW 17 20 9 11 1026.6 1026.6 -
30/09:00am 8.1 - - - - WNW 11 15 6 8 1026.7 1026.7 -
30/08:30am 7.6 - - - - WNW 9 13 5 7 1026.5 1026.5 -
30/08:00am 7.8 - - - - WNW 7 13 4 7 1026.2 1026.2 -
30/07:30am 7.6 - - - - WNW 11 19 6 10 1026.2 1026.2 -
30/07:00am 7.5 - - - - WNW 9 17 5 9 1026.1 1026.1 -
30/06:30am 7.4 - - - - NW 13 17 7 9 1026.0 1026.0 -

Other Formats:

Comma delimited format used in spreadsheet applications
http://www.bom.gov.au/fwo/IDT60801/IDT60801.95963.axf

JavaScript Object Notation format (JSON) in row-major order
http://www.bom.gov.au/fwo/IDT60801/IDT60801.95963.json